Back to Top

Language: 

My Weather Underground Personal Weather Station Historical Data with Graphs...

Delerius Weather Station Historical Data
Daily Summary for March 29, 2017 Units:  English    Metric   Both
« Previous Day
Next Day »
Daily Weekly Monthly Yearly Custom
  High: Low: Average:
Temperature: 57.9 °F 49.3 °F 53.9 °F
Dew Point: 53.9 °F 46.4 °F 50.8 °F
Humidity: 97 % 81 % 90 %
Wind Speed: 14.0 mph 0.0 mph 6.9 mph
Wind Gust: 27.0 mph - -
Wind:- - SSW
Pressure: 30.07 in 29.99 in -
Precipitation: 0.02 in    
Historical Graphs
 
 
Tabular Data for March 29, 2017
Time Temperature Dew Point Pressure Wind Wind Speed Wind Gust Humidity Rainfall Rate (Hourly) solar Conditions
00:03 51.3 °F 47.2 °F 30.03 in SSW 3.0 mph 7.0 mph 86 % 0.00 in 0 W/m2
00:08 51.1 °F 47.0 °F 30.02 in SSW 2.0 mph 7.0 mph 86 % 0.00 in 0 W/m2
00:13 51.1 °F 47.0 °F 30.02 in SSE 1.0 mph 6.0 mph 86 % 0.00 in 0 W/m2
00:18 51.1 °F 47.3 °F 30.02 in SSE 2.0 mph 7.0 mph 87 % 0.00 in 0 W/m2
00:23 50.9 °F 47.2 °F 30.02 in SSE 2.0 mph 7.0 mph 87 % 0.00 in 0 W/m2
00:28 50.9 °F 47.5 °F 30.02 in South 3.0 mph 7.0 mph 88 % 0.00 in 0 W/m2
00:33 50.9 °F 47.5 °F 30.02 in SSW 4.0 mph 7.0 mph 88 % 0.00 in 0 W/m2
00:38 50.9 °F 47.5 °F 30.02 in SSW 5.0 mph 8.0 mph 88 % 0.00 in 0 W/m2
00:43 50.9 °F 47.2 °F 30.02 in SSW 4.0 mph 8.0 mph 87 % 0.00 in 0 W/m2
00:48 50.9 °F 47.2 °F 30.02 in South 3.0 mph 8.0 mph 87 % 0.00 in 0 W/m2
00:53 50.9 °F 47.2 °F 30.02 in SSW 2.0 mph 7.0 mph 87 % 0.00 in 0 W/m2
00:58 50.9 °F 46.9 °F 30.02 in South 3.0 mph 9.0 mph 86 % 0.00 in 0 W/m2
01:03 50.9 °F 46.9 °F 30.02 in SSW 4.0 mph 9.0 mph 86 % 0.00 in 0 W/m2
01:08 50.9 °F 46.9 °F 30.02 in SSW 2.0 mph 8.0 mph 86 % 0.00 in 0 W/m2
01:13 50.9 °F 46.6 °F 30.02 in SW 4.0 mph 11.0 mph 85 % 0.00 in 0 W/m2
01:18 50.9 °F 46.6 °F 30.02 in SW 6.0 mph 11.0 mph 85 % 0.00 in 0 W/m2
01:23 50.7 °F 46.4 °F 30.02 in SW 6.0 mph 12.0 mph 85 % 0.00 in 0 W/m2
01:28 50.9 °F 46.6 °F 30.02 in SW 6.0 mph 12.0 mph 85 % 0.00 in 0 W/m2
01:33 50.9 °F 46.6 °F 30.01 in SW 6.0 mph 10.0 mph 85 % 0.00 in 0 W/m2
01:39 50.9 °F 46.6 °F 30.01 in SW 6.0 mph 11.0 mph 85 % 0.00 in 0 W/m2
01:44 50.7 °F 46.7 °F 30.02 in SW 5.0 mph 11.0 mph 86 % 0.00 in 0 W/m2
01:49 50.7 °F 46.7 °F 30.02 in SW 5.0 mph 9.0 mph 86 % 0.00 in 0 W/m2
01:54 50.7 °F 47.0 °F 30.02 in SW 6.0 mph 9.0 mph 87 % 0.00 in 0 W/m2
01:59 50.5 °F 46.8 °F 30.01 in SW 6.0 mph 9.0 mph 87 % 0.00 in 0 W/m2
02:04 50.5 °F 46.8 °F 30.01 in SW 6.0 mph 10.0 mph 87 % 0.00 in 0 W/m2
02:09 50.5 °F 47.1 °F 30.01 in SW 6.0 mph 10.0 mph 88 % 0.00 in 0 W/m2
02:14 50.4 °F 46.9 °F 30.01 in SW 6.0 mph 10.0 mph 88 % 0.00 in 0 W/m2
02:19 50.4 °F 46.9 °F 30.01 in SW 7.0 mph 11.0 mph 88 % 0.00 in 0 W/m2
02:24 50.4 °F 46.9 °F 30.01 in SSW 7.0 mph 12.0 mph 88 % 0.00 in 0 W/m2
02:29 50.4 °F 47.2 °F 30.01 in SSW 6.0 mph 12.0 mph 89 % 0.00 in 0 W/m2
02:34 50.2 °F 47.1 °F 30.01 in SW 4.0 mph 8.0 mph 89 % 0.00 in 0 W/m2
02:39 50.2 °F 47.4 °F 30.01 in SW 1.0 mph 5.0 mph 90 % 0.00 in 0 W/m2
02:44 50.2 °F 47.4 °F 30.01 in SSW 1.0 mph 5.0 mph 90 % 0.00 in 0 W/m2
02:49 50.2 °F 47.4 °F 30.01 in South 1.0 mph 5.0 mph 90 % 0.00 in 0 W/m2
02:54 50.0 °F 47.2 °F 30.01 in SSE 1.0 mph 5.0 mph 90 % 0.00 in 0 W/m2
02:59 50.0 °F 47.2 °F 30.01 in SSE 2.0 mph 5.0 mph 90 % 0.00 in 0 W/m2
03:04 50.0 °F 47.5 °F 30.01 in SSE 2.0 mph 5.0 mph 91 % 0.00 in 0 W/m2
03:09 49.8 °F 47.3 °F 30.01 in SSE 2.0 mph 6.0 mph 91 % 0.00 in 0 W/m2
03:14 49.8 °F 47.6 °F 30.00 in SSE 2.0 mph 6.0 mph 92 % 0.00 in 0 W/m2
03:19 49.6 °F 47.4 °F 30.00 in SSE 2.0 mph 6.0 mph 92 % 0.00 in 0 W/m2
03:24 49.6 °F 47.4 °F 30.00 in SSE 2.0 mph 6.0 mph 92 % 0.00 in 0 W/m2
03:30 49.6 °F 47.7 °F 30.00 in SSE 3.0 mph 6.0 mph 93 % 0.00 in 0 W/m2
03:35 49.5 °F 47.5 °F 30.00 in SSE 2.0 mph 5.0 mph 93 % 0.00 in 0 W/m2
03:40 49.5 °F 47.5 °F 30.00 in South 2.0 mph 6.0 mph 93 % 0.00 in 0 W/m2
03:45 49.5 °F 47.5 °F 30.00 in South 2.0 mph 6.0 mph 93 % 0.00 in 0 W/m2
03:50 49.5 °F 47.5 °F 30.00 in South 1.0 mph 6.0 mph 93 % 0.00 in 0 W/m2
03:55 49.3 °F 47.6 °F 30.00 in SSE 1.0 mph 5.0 mph 94 % 0.00 in 0 W/m2
04:00 49.3 °F 47.6 °F 30.00 in SSE 1.0 mph 4.0 mph 94 % 0.00 in 0 W/m2
04:05 49.3 °F 47.6 °F 30.00 in SE 2.0 mph 6.0 mph 94 % 0.00 in 0 W/m2
04:10 49.3 °F 47.6 °F 30.00 in SE 3.0 mph 6.0 mph 94 % 0.01 in 0 W/m2
04:15 49.5 °F 47.8 °F 30.00 in SE 3.0 mph 6.0 mph 94 % 0.01 in 0 W/m2
04:20 49.5 °F 48.1 °F 29.99 in SE 2.0 mph 6.0 mph 95 % 0.01 in 0 W/m2
04:25 49.5 °F 48.1 °F 29.99 in SE 2.0 mph 6.0 mph 95 % 0.01 in 0 W/m2
04:30 49.5 °F 48.1 °F 29.99 in SE 3.0 mph 8.0 mph 95 % 0.01 in 0 W/m2
04:35 49.5 °F 48.1 °F 29.99 in SE 3.0 mph 8.0 mph 95 % 0.01 in 0 W/m2
04:40 49.5 °F 48.1 °F 29.99 in SE 4.0 mph 7.0 mph 95 % 0.01 in 0 W/m2
04:45 49.5 °F 48.1 °F 29.99 in SE 4.0 mph 8.0 mph 95 % 0.01 in 0 W/m2
04:50 49.5 °F 48.1 °F 29.99 in SE 4.0 mph 8.0 mph 95 % 0.01 in 0 W/m2
04:55 49.5 °F 48.1 °F 29.99 in SE 4.0 mph 6.0 mph 95 % 0.01 in 0 W/m2
05:00 49.5 °F 48.1 °F 29.99 in SE 3.0 mph 6.0 mph 95 % 0.01 in 0 W/m2
05:05 49.5 °F 48.1 °F 29.99 in SE 3.0 mph 6.0 mph 95 % 0.01 in 0 W/m2
05:10 49.5 °F 48.1 °F 29.99 in SE 4.0 mph 8.0 mph 95 % 0.00 in 0 W/m2
05:15 49.5 °F 48.4 °F 30.00 in SE 4.0 mph 8.0 mph 96 % 0.00 in 0 W/m2
05:20 49.6 °F 48.5 °F 30.00 in SE 3.0 mph 6.0 mph 96 % 0.00 in 0 W/m2
05:25 49.6 °F 48.5 °F 30.00 in SE 3.0 mph 6.0 mph 96 % 0.00 in 0 W/m2
05:30 49.6 °F 48.5 °F 30.00 in ESE 3.0 mph 6.0 mph 96 % 0.00 in 0 W/m2
05:35 49.6 °F 48.5 °F 30.00 in ESE 3.0 mph 6.0 mph 96 % 0.00 in 0 W/m2
05:40 49.6 °F 48.5 °F 30.00 in ESE 3.0 mph 6.0 mph 96 % 0.00 in 0 W/m2
05:45 49.6 °F 48.5 °F 30.00 in ESE 3.0 mph 6.0 mph 96 % 0.00 in 0 W/m2
05:50 49.6 °F 48.5 °F 30.00 in ESE 2.0 mph 6.0 mph 96 % 0.00 in 0 W/m2
05:55 49.6 °F 48.5 °F 30.00 in ESE 1.0 mph 4.0 mph 96 % 0.00 in 0 W/m2
06:01 49.6 °F 48.5 °F 30.00 in ESE 1.0 mph 5.0 mph 96 % 0.00 in 0 W/m2
06:06 49.6 °F 48.5 °F 30.00 in ESE 1.0 mph 5.0 mph 96 % 0.00 in 0 W/m2
06:11 49.8 °F 48.7 °F 30.00 in ESE 1.0 mph 3.0 mph 96 % 0.00 in 0 W/m2
06:16 49.8 °F 48.7 °F 30.00 in ESE 1.0 mph 5.0 mph 96 % 0.00 in 0 W/m2
06:21 49.8 °F 48.7 °F 30.00 in ESE 1.0 mph 5.0 mph 96 % 0.00 in 0 W/m2
06:26 49.8 °F 48.7 °F 30.00 in ESE 1.0 mph 5.0 mph 96 % 0.00 in 0 W/m2
06:31 49.8 °F 48.7 °F 30.00 in ESE 1.0 mph 5.0 mph 96 % 0.00 in 0 W/m2
06:36 49.8 °F 48.7 °F 30.00 in ESE 1.0 mph 5.0 mph 96 % 0.00 in 0 W/m2
06:38 50.0 °F 48.9 °F 30.00 in ESE 1.0 mph 4.0 mph 96 % 0.00 in 0 W/m2
06:43 50.0 °F 48.9 °F 30.00 in ESE 1.0 mph 4.0 mph 96 % 0.00 in 0 W/m2
06:48 50.2 °F 49.1 °F 30.00 in ESE 1.0 mph 4.0 mph 96 % 0.00 in 0 W/m2
06:53 50.2 °F 49.1 °F 30.00 in ESE 2.0 mph 5.0 mph 96 % 0.00 in 0 W/m2
06:58 50.2 °F 49.1 °F 30.00 in ESE 1.0 mph 5.0 mph 96 % 0.00 in 0 W/m2
07:03 50.2 °F 49.1 °F 30.00 in Calm   1.0 mph 96 % 0.00 in 5 W/m2
07:08 50.4 °F 49.3 °F 30.01 in Calm   2.0 mph 96 % 0.00 in 5 W/m2
07:13 50.4 °F 49.3 °F 30.01 in Calm   2.0 mph 96 % 0.00 in 7 W/m2
07:18 50.4 °F 49.3 °F 30.01 in Calm   4.0 mph 96 % 0.00 in 9 W/m2
07:23 50.4 °F 49.3 °F 30.01 in Calm   4.0 mph 96 % 0.00 in 9 W/m2
07:28 50.5 °F 49.4 °F 30.02 in Calm   3.0 mph 96 % 0.00 in 11 W/m2
07:33 50.5 °F 49.7 °F 30.02 in Calm   3.0 mph 97 % 0.00 in 16 W/m2
07:38 50.7 °F 49.6 °F 30.02 in Calm   2.0 mph 96 % 0.00 in 18 W/m2
07:43 50.7 °F 49.6 °F 30.02 in WSW 1.0 mph 7.0 mph 96 % 0.00 in 19 W/m2
07:48 50.9 °F 49.8 °F 30.02 in West 1.0 mph 7.0 mph 96 % 0.00 in 25 W/m2
07:53 51.1 °F 50.0 °F 30.02 in Calm   4.0 mph 96 % 0.00 in 28 W/m2
07:58 51.1 °F 50.0 °F 30.02 in Calm   3.0 mph 96 % 0.00 in 26 W/m2
08:03 51.3 °F 50.2 °F 30.02 in Calm   3.0 mph 96 % 0.00 in 28 W/m2
08:08 51.4 °F 50.3 °F 30.03 in Calm   3.0 mph 96 % 0.00 in 35 W/m2
08:13 51.4 °F 50.3 °F 30.03 in Calm   2.0 mph 96 % 0.00 in 44 W/m2
08:18 51.4 °F 50.1 °F 30.03 in Calm   1.0 mph 95 % 0.00 in 56 W/m2
08:23 51.6 °F 50.2 °F 30.03 in Calm   1.0 mph 95 % 0.00 in 83 W/m2
08:28 51.8 °F 50.4 °F 30.03 in West 1.0 mph 6.0 mph 95 % 0.00 in 67 W/m2
08:33 52.0 °F 50.6 °F 30.03 in West 1.0 mph 6.0 mph 95 % 0.00 in 70 W/m2
08:38 52.2 °F 50.8 °F 30.03 in WSW 2.0 mph 6.0 mph 95 % 0.00 in 104 W/m2
08:43 52.5 °F 51.1 °F 30.03 in WSW 3.0 mph 11.0 mph 95 % 0.00 in 121 W/m2
08:48 52.7 °F 51.0 °F 30.03 in West 4.0 mph 11.0 mph 94 % 0.00 in 146 W/m2
08:53 53.1 °F 51.4 °F 30.03 in West 5.0 mph 11.0 mph 94 % 0.00 in 109 W/m2
08:58 53.2 °F 51.3 °F 30.03 in WSW 6.0 mph 11.0 mph 93 % 0.00 in 88 W/m2
09:03 53.4 °F 51.2 °F 30.04 in WSW 6.0 mph 12.0 mph 92 % 0.00 in 97 W/m2
09:08 53.8 °F 51.5 °F 30.04 in WSW 7.0 mph 14.0 mph 92 % 0.00 in 111 W/m2
09:13 54.0 °F 51.4 °F 30.04 in WSW 8.0 mph 14.0 mph 91 % 0.00 in 107 W/m2
09:18 54.0 °F 51.4 °F 30.03 in WSW 8.0 mph 15.0 mph 91 % 0.00 in 109 W/m2
09:23 54.1 °F 51.3 °F 30.03 in WSW 8.0 mph 15.0 mph 90 % 0.00 in 139 W/m2
09:28 54.1 °F 51.3 °F 30.03 in WSW 7.0 mph 13.0 mph 90 % 0.00 in 156 W/m2
09:33 54.1 °F 51.3 °F 30.03 in WSW 7.0 mph 12.0 mph 90 % 0.00 in 149 W/m2
09:38 54.3 °F 51.4 °F 30.04 in SW 6.0 mph 12.0 mph 90 % 0.00 in 139 W/m2
09:43 54.3 °F 51.4 °F 30.04 in SW 4.0 mph 9.0 mph 90 % 0.00 in 120 W/m2
09:48 54.5 °F 51.6 °F 30.04 in SSW 3.0 mph 8.0 mph 90 % 0.00 in 114 W/m2
09:53 54.7 °F 51.5 °F 30.04 in SW 5.0 mph 11.0 mph 89 % 0.00 in 121 W/m2
09:58 54.7 °F 51.5 °F 30.04 in WSW 5.0 mph 11.0 mph 89 % 0.00 in 128 W/m2
10:03 54.9 °F 51.7 °F 30.04 in WSW 4.0 mph 10.0 mph 89 % 0.00 in 105 W/m2
10:08 55.0 °F 51.9 °F 30.04 in WSW 3.0 mph 9.0 mph 89 % 0.00 in 100 W/m2
10:13 55.0 °F 51.5 °F 30.05 in SW 3.0 mph 9.0 mph 88 % 0.00 in 102 W/m2
10:18 55.2 °F 51.7 °F 30.05 in SW 5.0 mph 10.0 mph 88 % 0.00 in 83 W/m2
10:23 55.2 °F 51.4 °F 30.05 in SSW 5.0 mph 10.0 mph 87 % 0.00 in 135 W/m2
10:28 55.2 °F 51.4 °F 30.05 in SW 5.0 mph 11.0 mph 87 % 0.00 in 135 W/m2
10:33 55.4 °F 51.6 °F 30.05 in SW 5.0 mph 11.0 mph 87 % 0.00 in 199 W/m2
10:38 55.6 °F 51.8 °F 30.05 in SW 3.0 mph 9.0 mph 87 % 0.00 in 165 W/m2
10:43 55.8 °F 51.6 °F 30.05 in SSW 3.0 mph 8.0 mph 86 % 0.00 in 107 W/m2
10:48 55.8 °F 51.6 °F 30.05 in SSW 4.0 mph 9.0 mph 86 % 0.00 in 113 W/m2
10:53 55.8 °F 51.3 °F 30.06 in SSW 5.0 mph 12.0 mph 85 % 0.00 in 91 W/m2
10:58 55.8 °F 51.3 °F 30.06 in SSW 7.0 mph 15.0 mph 85 % 0.00 in 104 W/m2
11:03 55.8 °F 51.3 °F 30.06 in SSW 7.0 mph 15.0 mph 85 % 0.00 in 174 W/m2
11:08 55.9 °F 51.5 °F 30.06 in SSW 7.0 mph 14.0 mph 85 % 0.00 in 107 W/m2
11:14 55.9 °F 51.2 °F 30.06 in SSW 7.0 mph 14.0 mph 84 % 0.00 in 109 W/m2
11:19 55.9 °F 51.2 °F 30.06 in SSW 8.0 mph 14.0 mph 84 % 0.00 in 107 W/m2
11:24 55.9 °F 51.2 °F 30.06 in SSW 8.0 mph 14.0 mph 84 % 0.00 in 118 W/m2
11:29 55.9 °F 50.9 °F 30.06 in SSW 8.0 mph 15.0 mph 83 % 0.00 in 90 W/m2
11:34 55.9 °F 50.9 °F 30.07 in SSW 8.0 mph 15.0 mph 83 % 0.00 in 84 W/m2
11:39 56.1 °F 51.0 °F 30.06 in SSW 6.0 mph 14.0 mph 83 % 0.00 in 72 W/m2
11:44 56.1 °F 51.0 °F 30.07 in SSW 4.0 mph 9.0 mph 83 % 0.00 in 69 W/m2
11:49 56.1 °F 51.0 °F 30.07 in SSW 3.0 mph 9.0 mph 83 % 0.00 in 65 W/m2
11:54 56.1 °F 51.0 °F 30.06 in SSW 4.0 mph 9.0 mph 83 % 0.00 in 93 W/m2
11:59 56.3 °F 51.5 °F 30.06 in SSW 5.0 mph 20.0 mph 84 % 0.00 in 121 W/m2
12:04 56.3 °F 51.5 °F 30.06 in SSW 6.0 mph 20.0 mph 84 % 0.00 in 107 W/m2
12:09 56.1 °F 51.4 °F 30.06 in SW 7.0 mph 13.0 mph 84 % 0.00 in 158 W/m2
12:14 56.3 °F 51.8 °F 30.06 in SW 7.0 mph 12.0 mph 85 % 0.00 in 178 W/m2
12:19 56.1 °F 51.7 °F 30.06 in SW 8.0 mph 19.0 mph 85 % 0.00 in 241 W/m2
12:24 56.3 °F 51.8 °F 30.06 in SW 10.0 mph 20.0 mph 85 % 0.00 in 204 W/m2
12:29 56.3 °F 51.8 °F 30.05 in SW 11.0 mph 20.0 mph 85 % 0.00 in 197 W/m2
12:34 56.5 °F 52.0 °F 30.06 in SW 10.0 mph 18.0 mph 85 % 0.00 in 234 W/m2
12:39 56.5 °F 52.0 °F 30.06 in SW 9.0 mph 18.0 mph 85 % 0.00 in 341 W/m2
12:44 56.8 °F 52.4 °F 30.05 in SW 8.0 mph 18.0 mph 85 % 0.00 in 566 W/m2
12:49 57.4 °F 52.3 °F 30.06 in SW 9.0 mph 18.0 mph 83 % 0.00 in 410 W/m2
12:54 57.7 °F 52.6 °F 30.06 in SW 11.0 mph 18.0 mph 83 % 0.00 in 394 W/m2
12:59 57.9 °F 52.5 °F 30.05 in SW 11.0 mph 24.0 mph 82 % 0.00 in 329 W/m2
13:04 57.9 °F 52.5 °F 30.06 in SW 12.0 mph 24.0 mph 82 % 0.00 in 278 W/m2
13:09 57.6 °F 51.8 °F 30.06 in SW 10.0 mph 20.0 mph 81 % 0.00 in 197 W/m2
13:14 57.4 °F 51.9 °F 30.06 in SW 10.0 mph 19.0 mph 82 % 0.00 in 176 W/m2
13:19 57.2 °F 51.8 °F 30.05 in SW 10.0 mph 19.0 mph 82 % 0.00 in 167 W/m2
13:24 56.8 °F 51.4 °F 30.06 in SSW 10.0 mph 19.0 mph 82 % 0.00 in 149 W/m2
13:29 56.8 °F 51.7 °F 30.06 in SSW 10.0 mph 22.0 mph 83 % 0.00 in 134 W/m2
13:34 56.7 °F 51.6 °F 30.05 in SSW 11.0 mph 22.0 mph 83 % 0.00 in 111 W/m2
13:39 56.5 °F 51.4 °F 30.05 in SSW 10.0 mph 21.0 mph 83 % 0.00 in 134 W/m2
13:44 56.5 °F 51.4 °F 30.05 in SW 8.0 mph 20.0 mph 83 % 0.00 in 148 W/m2
13:49 56.5 °F 51.7 °F 30.05 in SW 7.0 mph 12.0 mph 84 % 0.00 in 135 W/m2
13:54 56.7 °F 51.6 °F 30.05 in SW 7.0 mph 13.0 mph 83 % 0.00 in 118 W/m2
13:59 56.7 °F 51.6 °F 30.05 in SSW 8.0 mph 15.0 mph 83 % 0.00 in 134 W/m2
14:04 56.7 °F 51.9 °F 30.04 in SW 8.0 mph 15.0 mph 84 % 0.00 in 155 W/m2
14:09 56.8 °F 52.1 °F 30.04 in SSW 6.0 mph 14.0 mph 84 % 0.00 in 153 W/m2
14:14 56.8 °F 51.7 °F 30.04 in SSW 8.0 mph 16.0 mph 83 % 0.00 in 104 W/m2
14:19 56.8 °F 51.7 °F 30.04 in SSW 11.0 mph 20.0 mph 83 % 0.00 in 118 W/m2
14:24 56.8 °F 51.7 °F 30.04 in SSW 9.0 mph 20.0 mph 83 % 0.00 in 132 W/m2
14:29 57.0 °F 51.9 °F 30.05 in SSW 7.0 mph 12.0 mph 83 % 0.00 in 123 W/m2
14:34 57.0 °F 51.9 °F 30.05 in SSW 7.0 mph 13.0 mph 83 % 0.00 in 113 W/m2
14:39 57.2 °F 52.4 °F 30.04 in SW 7.0 mph 15.0 mph 84 % 0.00 in 91 W/m2
14:44 57.0 °F 52.6 °F 30.05 in SW 6.0 mph 15.0 mph 85 % 0.00 in 90 W/m2
14:49 57.0 °F 52.6 °F 30.04 in SSW 7.0 mph 12.0 mph 85 % 0.00 in 81 W/m2
14:54 56.8 °F 52.7 °F 30.04 in SSW 9.0 mph 19.0 mph 86 % 0.01 in 100 W/m2
14:59 56.5 °F 52.7 °F 30.04 in SSW 11.0 mph 20.0 mph 87 % 0.01 in 98 W/m2
15:05 56.1 °F 52.6 °F 30.04 in SW 10.0 mph 20.0 mph 88 % 0.01 in 149 W/m2
15:10 56.1 °F 52.9 °F 30.04 in SW 8.0 mph 14.0 mph 89 % 0.02 in 200 W/m2
15:15 56.1 °F 53.2 °F 30.03 in SSW 8.0 mph 14.0 mph 90 % 0.02 in 153 W/m2
15:20 56.1 °F 53.2 °F 30.03 in SSW 8.0 mph 20.0 mph 90 % 0.02 in 155 W/m2
15:25 56.1 °F 53.2 °F 30.03 in SSW 9.0 mph 20.0 mph 90 % 0.02 in 144 W/m2
15:30 56.1 °F 53.2 °F 30.03 in SSW 8.0 mph 15.0 mph 90 % 0.02 in 107 W/m2
15:35 56.1 °F 52.9 °F 30.03 in SSW 8.0 mph 15.0 mph 89 % 0.02 in 149 W/m2
15:40 56.3 °F 53.4 °F 30.02 in SSW 9.0 mph 13.0 mph 90 % 0.02 in 148 W/m2
15:45 56.5 °F 53.3 °F 30.02 in SSW 8.0 mph 14.0 mph 89 % 0.02 in 127 W/m2
15:50 56.5 °F 53.3 °F 30.02 in SSW 7.0 mph 14.0 mph 89 % 0.02 in 120 W/m2
15:55 56.5 °F 53.0 °F 30.02 in SSW 8.0 mph 15.0 mph 88 % 0.01 in 83 W/m2
16:00 56.5 °F 53.3 °F 30.02 in SSW 9.0 mph 15.0 mph 89 % 0.01 in 93 W/m2
16:05 56.5 °F 53.3 °F 30.02 in SSW 9.0 mph 14.0 mph 89 % 0.01 in 118 W/m2
16:10 56.3 °F 53.1 °F 30.02 in SSW 10.0 mph 16.0 mph 89 % 0.00 in 120 W/m2
16:15 56.5 °F 53.3 °F 30.02 in SSW 10.0 mph 16.0 mph 89 % 0.00 in 116 W/m2
16:20 56.5 °F 53.3 °F 30.02 in SSW 11.0 mph 21.0 mph 89 % 0.00 in 125 W/m2
16:25 56.5 °F 53.3 °F 30.02 in SSW 12.0 mph 21.0 mph 89 % 0.00 in 84 W/m2
16:30 56.5 °F 53.0 °F 30.01 in SSW 13.0 mph 21.0 mph 88 % 0.00 in 83 W/m2
16:35 56.5 °F 53.3 °F 30.01 in SSW 12.0 mph 21.0 mph 89 % 0.00 in 98 W/m2
16:40 56.5 °F 53.3 °F 30.01 in SSW 11.0 mph 21.0 mph 89 % 0.00 in 118 W/m2
16:45 56.7 °F 53.5 °F 30.01 in SSW 12.0 mph 21.0 mph 89 % 0.00 in 128 W/m2
16:50 56.7 °F 53.5 °F 30.01 in SSW 12.0 mph 21.0 mph 89 % 0.00 in 125 W/m2
16:55 56.8 °F 53.3 °F 30.01 in SSW 12.0 mph 22.0 mph 88 % 0.00 in 132 W/m2
17:00 56.8 °F 53.3 °F 30.01 in SSW 12.0 mph 22.0 mph 88 % 0.00 in 116 W/m2
17:05 57.0 °F 53.5 °F 30.01 in SSW 12.0 mph 24.0 mph 88 % 0.00 in 111 W/m2
17:10 57.0 °F 53.5 °F 30.01 in SSW 13.0 mph 24.0 mph 88 % 0.00 in 139 W/m2
17:15 57.2 °F 53.7 °F 30.01 in SSW 12.0 mph 19.0 mph 88 % 0.00 in 165 W/m2
17:20 57.4 °F 53.9 °F 30.01 in SW 12.0 mph 22.0 mph 88 % 0.00 in 199 W/m2
17:25 57.4 °F 53.9 °F 30.01 in SSW 13.0 mph 22.0 mph 88 % 0.00 in 116 W/m2
17:30 57.4 °F 53.5 °F 30.01 in SSW 13.0 mph 27.0 mph 87 % 0.00 in 81 W/m2
17:35 57.2 °F 53.4 °F 30.01 in SSW 13.0 mph 27.0 mph 87 % 0.00 in 84 W/m2
17:40 57.0 °F 53.2 °F 30.00 in SSW 12.0 mph 21.0 mph 87 % 0.00 in 100 W/m2
17:45 57.0 °F 53.2 °F 30.00 in SSW 12.0 mph 21.0 mph 87 % 0.00 in 76 W/m2
17:50 57.0 °F 53.2 °F 30.01 in SSW 12.0 mph 21.0 mph 87 % 0.00 in 49 W/m2
17:55 57.0 °F 53.2 °F 30.01 in SSW 13.0 mph 24.0 mph 87 % 0.00 in 26 W/m2
18:00 57.0 °F 53.2 °F 30.01 in SSW 12.0 mph 24.0 mph 87 % 0.00 in 23 W/m2
18:05 56.8 °F 53.0 °F 30.01 in SSW 11.0 mph 21.0 mph 87 % 0.00 in 25 W/m2
18:10 56.8 °F 53.0 °F 30.01 in SSW 11.0 mph 21.0 mph 87 % 0.00 in 37 W/m2
18:15 56.8 °F 53.0 °F 30.01 in SSW 11.0 mph 21.0 mph 87 % 0.00 in 25 W/m2
18:20 56.7 °F 52.8 °F 30.01 in SSW 11.0 mph 19.0 mph 87 % 0.00 in 19 W/m2
18:25 56.7 °F 53.1 °F 30.01 in SSW 11.0 mph 20.0 mph 88 % 0.00 in 18 W/m2
18:30 56.7 °F 53.1 °F 30.01 in SSW 11.0 mph 20.0 mph 88 % 0.00 in 12 W/m2
18:35 56.5 °F 53.0 °F 30.01 in SSW 10.0 mph 18.0 mph 88 % 0.00 in 11 W/m2
18:41 56.5 °F 53.3 °F 30.01 in SSW 9.0 mph 15.0 mph 89 % 0.00 in 14 W/m2
18:46 56.1 °F 52.9 °F 30.01 in SSW 9.0 mph 15.0 mph 89 % 0.00 in 14 W/m2
18:51 55.9 °F 53.0 °F 30.01 in SSW 9.0 mph 16.0 mph 90 % 0.00 in 12 W/m2
18:56 55.8 °F 52.9 °F 30.01 in SSW 10.0 mph 19.0 mph 90 % 0.00 in 11 W/m2
19:01 55.8 °F 52.9 °F 30.01 in SSW 10.0 mph 19.0 mph 90 % 0.00 in 9 W/m2
19:06 55.6 °F 52.7 °F 30.01 in SW 11.0 mph 18.0 mph 90 % 0.00 in 7 W/m2
19:11 55.6 °F 53.0 °F 30.01 in SSW 11.0 mph 19.0 mph 91 % 0.00 in 5 W/m2
19:16 55.6 °F 53.0 °F 30.01 in SSW 10.0 mph 19.0 mph 91 % 0.00 in 0 W/m2
19:21 55.4 °F 52.8 °F 30.01 in SSW 10.0 mph 19.0 mph 91 % 0.00 in 0 W/m2
19:26 55.4 °F 52.8 °F 30.01 in SSW 11.0 mph 21.0 mph 91 % 0.00 in 0 W/m2
19:32 55.2 °F 52.6 °F 30.01 in SSW 11.0 mph 21.0 mph 91 % 0.00 in 0 W/m2
19:37 55.2 °F 52.6 °F 30.01 in SSW 11.0 mph 19.0 mph 91 % 0.00 in 0 W/m2
19:42 55.0 °F 52.5 °F 30.01 in SSW 10.0 mph 16.0 mph 91 % 0.00 in 0 W/m2
19:47 55.0 °F 52.5 °F 30.01 in SW 10.0 mph 16.0 mph 91 % 0.00 in 0 W/m2
19:52 55.0 °F 52.8 °F 30.01 in SW 9.0 mph 14.0 mph 92 % 0.00 in 0 W/m2
19:57 55.0 °F 52.8 °F 30.01 in SW 8.0 mph 13.0 mph 92 % 0.00 in 0 W/m2
20:02 55.0 °F 52.8 °F 30.01 in SW 9.0 mph 16.0 mph 92 % 0.00 in 0 W/m2
20:07 55.0 °F 52.8 °F 30.01 in SSW 10.0 mph 16.0 mph 92 % 0.00 in 0 W/m2
20:12 55.0 °F 52.8 °F 30.01 in SSW 10.0 mph 19.0 mph 92 % 0.00 in 0 W/m2
20:17 55.0 °F 52.5 °F 30.01 in SW 10.0 mph 19.0 mph 91 % 0.00 in 0 W/m2
20:22 55.0 °F 52.5 °F 30.01 in SW 10.0 mph 19.0 mph 91 % 0.00 in 0 W/m2
20:27 55.0 °F 52.5 °F 30.01 in SW 11.0 mph 19.0 mph 91 % 0.00 in 0 W/m2
20:32 55.2 °F 52.6 °F 30.01 in SW 12.0 mph 21.0 mph 91 % 0.00 in 0 W/m2
20:37 55.2 °F 52.6 °F 30.02 in SW 12.0 mph 21.0 mph 91 % 0.00 in 0 W/m2
20:42 55.2 °F 52.6 °F 30.02 in SW 12.0 mph 22.0 mph 91 % 0.00 in 0 W/m2
20:48 55.2 °F 52.6 °F 30.02 in SW 12.0 mph 22.0 mph 91 % 0.00 in 0 W/m2
20:53 55.2 °F 52.6 °F 30.02 in SW 10.0 mph 19.0 mph 91 % 0.00 in 0 W/m2
20:58 55.2 °F 52.3 °F 30.02 in SW 10.0 mph 18.0 mph 90 % 0.00 in 0 W/m2
21:03 55.2 °F 52.6 °F 30.02 in SW 11.0 mph 18.0 mph 91 % 0.00 in 0 W/m2
21:08 55.2 °F 52.6 °F 30.02 in SSW 12.0 mph 20.0 mph 91 % 0.00 in 0 W/m2
21:13 55.2 °F 52.3 °F 30.02 in SSW 13.0 mph 21.0 mph 90 % 0.00 in 0 W/m2
21:18 55.4 °F 52.5 °F 30.02 in SW 13.0 mph 21.0 mph 90 % 0.00 in 0 W/m2
21:23 55.4 °F 52.5 °F 30.02 in SW 13.0 mph 23.0 mph 90 % 0.00 in 0 W/m2
21:28 55.4 °F 52.5 °F 30.02 in SW 14.0 mph 23.0 mph 90 % 0.00 in 0 W/m2
21:33 55.6 °F 52.7 °F 30.02 in SSW 14.0 mph 24.0 mph 90 % 0.00 in 0 W/m2
21:38 55.6 °F 52.7 °F 30.02 in SSW 14.0 mph 24.0 mph 90 % 0.00 in 0 W/m2
21:43 55.6 °F 52.7 °F 30.02 in SW 13.0 mph 23.0 mph 90 % 0.00 in 0 W/m2
21:48 55.6 °F 52.7 °F 30.02 in SW 13.0 mph 21.0 mph 90 % 0.00 in 0 W/m2
21:53 55.6 °F 52.7 °F 30.02 in SW 13.0 mph 21.0 mph 90 % 0.00 in 0 W/m2
21:58 55.6 °F 52.4 °F 30.02 in SSW 13.0 mph 27.0 mph 89 % 0.00 in 0 W/m2
22:03 55.6 °F 52.4 °F 30.02 in SSW 13.0 mph 27.0 mph 89 % 0.00 in 0 W/m2
22:08 55.6 °F 52.4 °F 30.02 in SSW 12.0 mph 20.0 mph 89 % 0.00 in 0 W/m2
22:13 55.8 °F 52.6 °F 30.02 in SSW 11.0 mph 20.0 mph 89 % 0.00 in 0 W/m2
22:18 55.8 °F 52.6 °F 30.02 in SSW 11.0 mph 20.0 mph 89 % 0.00 in 0 W/m2
22:23 55.8 °F 52.6 °F 30.02 in SSW 10.0 mph 19.0 mph 89 % 0.00 in 0 W/m2
22:28 55.8 °F 52.6 °F 30.02 in SSW 11.0 mph 26.0 mph 89 % 0.00 in 0 W/m2
22:34 55.8 °F 52.6 °F 30.02 in SSW 11.0 mph 26.0 mph 89 % 0.00 in 0 W/m2
22:39 55.8 °F 52.6 °F 30.02 in SSW 11.0 mph 22.0 mph 89 % 0.00 in 0 W/m2
22:44 55.8 °F 52.6 °F 30.02 in SSW 10.0 mph 22.0 mph 89 % 0.00 in 0 W/m2
22:49 55.8 °F 52.6 °F 30.02 in SSW 9.0 mph 18.0 mph 89 % 0.00 in 0 W/m2
22:54 55.8 °F 52.6 °F 30.02 in SSW 10.0 mph 18.0 mph 89 % 0.00 in 0 W/m2
22:59 55.8 °F 52.6 °F 30.02 in SSW 9.0 mph 18.0 mph 89 % 0.00 in 0 W/m2
23:04 55.8 °F 52.6 °F 30.02 in SSW 9.0 mph 18.0 mph 89 % 0.00 in 0 W/m2
23:09 55.6 °F 52.4 °F 30.02 in SSW 11.0 mph 22.0 mph 89 % 0.00 in 0 W/m2
23:14 55.8 °F 52.6 °F 30.02 in SSW 12.0 mph 23.0 mph 89 % 0.00 in 0 W/m2
23:19 55.8 °F 52.6 °F 30.02 in SSW 13.0 mph 23.0 mph 89 % 0.00 in 0 W/m2
23:24 55.8 °F 52.6 °F 30.02 in SSW 14.0 mph 22.0 mph 89 % 0.00 in 0 W/m2
23:29 55.8 °F 52.3 °F 30.01 in SSW 13.0 mph 22.0 mph 88 % 0.00 in 0 W/m2
23:34 55.8 °F 52.3 °F 30.01 in SSW 12.0 mph 21.0 mph 88 % 0.00 in 0 W/m2
23:39 55.8 °F 52.3 °F 30.01 in SSW 12.0 mph 21.0 mph 88 % 0.00 in 0 W/m2
23:44 55.8 °F 52.3 °F 30.01 in SSW 13.0 mph 22.0 mph 88 % 0.00 in 0 W/m2
23:49 55.8 °F 52.3 °F 30.01 in SW 13.0 mph 22.0 mph 88 % 0.00 in 0 W/m2
23:54 55.8 °F 52.3 °F 30.01 in SW 11.0 mph 21.0 mph 88 % 0.00 in 0 W/m2
23:59 55.8 °F 52.3 °F 30.01 in SW 11.0 mph 18.0 mph 88 % 0.00 in 0 W/m2
Delerius-Weather
Compliments of Weather Underground - 2.25 mb

Data updates at regular intervals.